Amity, Maine
Current Conditions -  °F | °C
As of 9:53 AM on Saturday 22 Nov 2014 (Local Time) from KHUL Reporting Station
Broken Clouds Broken Clouds  
Wind Chill: -13°   Ceiling: 11000
Heat Index: -7°   Visibility: 10mi
Dew Point: -13°   Wind: 12mph
Humidity: 62%   Direction: 220°SW
Pressure: 30.11"   Gusts: 17mph
Location:  45.8952°N, 67.8479°W
Report Text: KHUL 221453Z AUTO 22010G15KT 10SM SCT085 BKN110 M07/M13 A3011 RMK AO2 SLP207 T10671128 58026
Loading
Personal Weather Stations






























Interactive Weather Map New forecast layout! Learn more

10-Day Weather Forecast

Advertisements
Track Severe Weather on mobile